sensor_id;sensor_type;location;lat;lon;timestamp;P1;durP1;ratioP1;P2;durP2;ratioP2
9898;SDS011;4988;49.238;6.698;2022-09-17T00:02:16;7.03;;;3.43;;
9898;SDS011;4988;49.238;6.698;2022-09-17T00:04:42;6.00;;;3.70;;
9898;SDS011;4988;49.238;6.698;2022-09-17T00:07:07;8.90;;;3.70;;
9898;SDS011;4988;49.238;6.698;2022-09-17T00:09:32;10.13;;;3.67;;
9898;SDS011;4988;49.238;6.698;2022-09-17T00:11:58;10.87;;;3.87;;
9898;SDS011;4988;49.238;6.698;2022-09-17T00:14:23;9.50;;;3.40;;
9898;SDS011;4988;49.238;6.698;2022-09-17T00:16:48;9.53;;;3.27;;
9898;SDS011;4988;49.238;6.698;2022-09-17T00:19:16;6.60;;;3.10;;
9898;SDS011;4988;49.238;6.698;2022-09-17T00:21:46;7.37;;;2.90;;
9898;SDS011;4988;49.238;6.698;2022-09-17T00:24:13;4.00;;;3.03;;
9898;SDS011;4988;49.238;6.698;2022-09-17T00:26:39;5.53;;;2.90;;
9898;SDS011;4988;49.238;6.698;2022-09-17T00:29:05;4.87;;;3.30;;
9898;SDS011;4988;49.238;6.698;2022-09-17T00:31:31;5.70;;;2.87;;
9898;SDS011;4988;49.238;6.698;2022-09-17T00:33:57;4.53;;;2.70;;
9898;SDS011;4988;49.238;6.698;2022-09-17T00:36:24;4.97;;;2.80;;
9898;SDS011;4988;49.238;6.698;2022-09-17T00:38:50;5.27;;;2.77;;
9898;SDS011;4988;49.238;6.698;2022-09-17T00:41:17;5.10;;;3.00;;
9898;SDS011;4988;49.238;6.698;2022-09-17T00:43:44;5.20;;;2.87;;
9898;SDS011;4988;49.238;6.698;2022-09-17T00:48:50;10.23;;;2.90;;
9898;SDS011;4988;49.238;6.698;2022-09-17T00:51:22;7.77;;;2.73;;
9898;SDS011;4988;49.238;6.698;2022-09-17T00:54:11;7.97;;;2.90;;
9898;SDS011;4988;49.238;6.698;2022-09-17T00:56:38;6.10;;;2.77;;
9898;SDS011;4988;49.238;6.698;2022-09-17T00:59:05;4.90;;;3.10;;
9898;SDS011;4988;49.238;6.698;2022-09-17T01:01:32;3.47;;;2.80;;
9898;SDS011;4988;49.238;6.698;2022-09-17T01:03:57;14.13;;;3.20;;
9898;SDS011;4988;49.238;6.698;2022-09-17T01:09:20;6.37;;;3.07;;
9898;SDS011;4988;49.238;6.698;2022-09-17T01:38:23;10.13;;;3.80;;
9898;SDS011;4988;49.238;6.698;2022-09-17T01:45:59;6.93;;;4.00;;
9898;SDS011;4988;49.238;6.698;2022-09-17T01:48:39;6.90;;;3.97;;
9898;SDS011;4988;49.238;6.698;2022-09-17T01:51:19;6.80;;;4.80;;
9898;SDS011;4988;49.238;6.698;2022-09-17T01:56:25;9.97;;;4.10;;
9898;SDS011;4988;49.238;6.698;2022-09-17T01:58:59;6.40;;;3.87;;
9898;SDS011;4988;49.238;6.698;2022-09-17T02:01:35;8.27;;;4.10;;
9898;SDS011;4988;49.238;6.698;2022-09-17T02:04:06;8.47;;;3.77;;
9898;SDS011;4988;49.238;6.698;2022-09-17T02:06:39;7.80;;;3.80;;
9898;SDS011;4988;49.238;6.698;2022-09-17T02:10:10;9.37;;;4.00;;
9898;SDS011;4988;49.238;6.698;2022-09-17T02:12:14;11.07;;;4.20;;
9898;SDS011;4988;49.238;6.698;2022-09-17T02:14:50;7.87;;;3.83;;
9898;SDS011;4988;49.238;6.698;2022-09-17T02:17:22;7.70;;;3.80;;
9898;SDS011;4988;49.238;6.698;2022-09-17T02:19:54;10.03;;;3.57;;
9898;SDS011;4988;49.238;6.698;2022-09-17T02:22:21;6.93;;;3.83;;
9898;SDS011;4988;49.238;6.698;2022-09-17T02:27:46;9.00;;;3.70;;
9898;SDS011;4988;49.238;6.698;2022-09-17T02:30:17;7.53;;;3.77;;
9898;SDS011;4988;49.238;6.698;2022-09-17T02:32:43;7.27;;;3.70;;
9898;SDS011;4988;49.238;6.698;2022-09-17T02:35:09;6.47;;;3.50;;
9898;SDS011;4988;49.238;6.698;2022-09-17T02:37:36;7.70;;;3.60;;
9898;SDS011;4988;49.238;6.698;2022-09-17T02:40:02;8.10;;;3.50;;
9898;SDS011;4988;49.238;6.698;2022-09-17T02:55:58;6.77;;;3.40;;
9898;SDS011;4988;49.238;6.698;2022-09-17T02:58:50;10.27;;;3.43;;
9898;SDS011;4988;49.238;6.698;2022-09-17T03:01:24;8.27;;;3.57;;
9898;SDS011;4988;49.238;6.698;2022-09-17T03:03:55;5.23;;;3.33;;
9898;SDS011;4988;49.238;6.698;2022-09-17T03:06:24;7.33;;;3.10;;
9898;SDS011;4988;49.238;6.698;2022-09-17T03:08:50;11.50;;;3.27;;
9898;SDS011;4988;49.238;6.698;2022-09-17T03:11:16;10.83;;;3.67;;
9898;SDS011;4988;49.238;6.698;2022-09-17T03:13:41;7.87;;;3.57;;
9898;SDS011;4988;49.238;6.698;2022-09-17T03:16:07;9.23;;;3.97;;
9898;SDS011;4988;49.238;6.698;2022-09-17T03:18:32;6.20;;;3.27;;
9898;SDS011;4988;49.238;6.698;2022-09-17T03:20:58;7.07;;;3.73;;
9898;SDS011;4988;49.238;6.698;2022-09-17T03:23:23;10.57;;;4.63;;
9898;SDS011;4988;49.238;6.698;2022-09-17T03:25:49;6.47;;;3.80;;
9898;SDS011;4988;49.238;6.698;2022-09-17T03:28:15;7.17;;;3.67;;
9898;SDS011;4988;49.238;6.698;2022-09-17T03:30:42;6.97;;;3.50;;
9898;SDS011;4988;49.238;6.698;2022-09-17T03:33:08;8.10;;;3.73;;
9898;SDS011;4988;49.238;6.698;2022-09-17T03:35:33;7.60;;;3.23;;
9898;SDS011;4988;49.238;6.698;2022-09-17T03:37:59;8.07;;;3.60;;
9898;SDS011;4988;49.238;6.698;2022-09-17T03:40:24;10.53;;;3.70;;
9898;SDS011;4988;49.238;6.698;2022-09-17T03:42:49;8.30;;;3.70;;
9898;SDS011;4988;49.238;6.698;2022-09-17T03:45:15;6.63;;;3.70;;
9898;SDS011;4988;49.238;6.698;2022-09-17T03:47:40;5.43;;;3.87;;
9898;SDS011;4988;49.238;6.698;2022-09-17T03:50:05;7.30;;;3.80;;
9898;SDS011;4988;49.238;6.698;2022-09-17T03:52:31;7.20;;;3.30;;
9898;SDS011;4988;49.238;6.698;2022-09-17T03:54:56;8.37;;;3.63;;
9898;SDS011;4988;49.238;6.698;2022-09-17T03:57:22;7.03;;;3.30;;
9898;SDS011;4988;49.238;6.698;2022-09-17T03:59:47;6.83;;;3.50;;
9898;SDS011;4988;49.238;6.698;2022-09-17T04:02:13;8.47;;;3.97;;
9898;SDS011;4988;49.238;6.698;2022-09-17T04:04:38;7.80;;;3.70;;
9898;SDS011;4988;49.238;6.698;2022-09-17T04:07:04;8.77;;;3.70;;
9898;SDS011;4988;49.238;6.698;2022-09-17T04:09:29;8.60;;;3.63;;
9898;SDS011;4988;49.238;6.698;2022-09-17T04:11:55;8.33;;;3.33;;
9898;SDS011;4988;49.238;6.698;2022-09-17T04:14:20;5.83;;;3.47;;
9898;SDS011;4988;49.238;6.698;2022-09-17T04:16:45;7.30;;;3.67;;
9898;SDS011;4988;49.238;6.698;2022-09-17T04:19:11;8.13;;;3.63;;
9898;SDS011;4988;49.238;6.698;2022-09-17T04:21:36;6.57;;;3.27;;
9898;SDS011;4988;49.238;6.698;2022-09-17T04:24:01;8.83;;;3.70;;
9898;SDS011;4988;49.238;6.698;2022-09-17T04:26:27;6.67;;;3.30;;
9898;SDS011;4988;49.238;6.698;2022-09-17T04:28:52;7.17;;;3.50;;
9898;SDS011;4988;49.238;6.698;2022-09-17T04:31:17;7.77;;;3.23;;
9898;SDS011;4988;49.238;6.698;2022-09-17T04:33:43;8.57;;;3.60;;
9898;SDS011;4988;49.238;6.698;2022-09-17T04:36:08;7.70;;;3.67;;
9898;SDS011;4988;49.238;6.698;2022-09-17T04:38:33;9.23;;;3.33;;
9898;SDS011;4988;49.238;6.698;2022-09-17T04:40:59;6.77;;;3.53;;
9898;SDS011;4988;49.238;6.698;2022-09-17T04:43:24;10.57;;;3.90;;
9898;SDS011;4988;49.238;6.698;2022-09-17T04:45:50;5.57;;;3.60;;
9898;SDS011;4988;49.238;6.698;2022-09-17T04:48:15;4.90;;;3.93;;
9898;SDS011;4988;49.238;6.698;2022-09-17T04:50:40;7.73;;;3.70;;
9898;SDS011;4988;49.238;6.698;2022-09-17T04:53:06;7.10;;;3.70;;
9898;SDS011;4988;49.238;6.698;2022-09-17T04:55:31;10.63;;;3.70;;
9898;SDS011;4988;49.238;6.698;2022-09-17T04:57:57;8.37;;;3.90;;
9898;SDS011;4988;49.238;6.698;2022-09-17T05:00:22;6.60;;;3.70;;
9898;SDS011;4988;49.238;6.698;2022-09-17T05:02:49;9.30;;;4.03;;
9898;SDS011;4988;49.238;6.698;2022-09-17T05:05:17;8.07;;;3.80;;
9898;SDS011;4988;49.238;6.698;2022-09-17T05:07:43;8.57;;;3.90;;
9898;SDS011;4988;49.238;6.698;2022-09-17T05:10:09;8.27;;;4.00;;
9898;SDS011;4988;49.238;6.698;2022-09-17T05:12:35;10.90;;;4.30;;
9898;SDS011;4988;49.238;6.698;2022-09-17T05:15:01;6.33;;;3.63;;
9898;SDS011;4988;49.238;6.698;2022-09-17T05:17:27;7.07;;;4.23;;
9898;SDS011;4988;49.238;6.698;2022-09-17T05:19:52;9.53;;;4.00;;
9898;SDS011;4988;49.238;6.698;2022-09-17T05:22:17;10.80;;;4.13;;
9898;SDS011;4988;49.238;6.698;2022-09-17T05:24:43;6.57;;;4.03;;
9898;SDS011;4988;49.238;6.698;2022-09-17T05:27:09;7.93;;;4.20;;
9898;SDS011;4988;49.238;6.698;2022-09-17T05:29:34;13.87;;;4.23;;
9898;SDS011;4988;49.238;6.698;2022-09-17T05:32:00;11.63;;;4.33;;
9898;SDS011;4988;49.238;6.698;2022-09-17T05:34:26;11.97;;;5.17;;
9898;SDS011;4988;49.238;6.698;2022-09-17T05:36:51;7.67;;;3.97;;
9898;SDS011;4988;49.238;6.698;2022-09-17T05:39:16;13.93;;;4.00;;
9898;SDS011;4988;49.238;6.698;2022-09-17T05:41:42;8.03;;;4.00;;
9898;SDS011;4988;49.238;6.698;2022-09-17T05:44:07;10.03;;;4.10;;
9898;SDS011;4988;49.238;6.698;2022-09-17T05:46:33;9.43;;;4.37;;
9898;SDS011;4988;49.238;6.698;2022-09-17T05:48:59;8.50;;;4.37;;
9898;SDS011;4988;49.238;6.698;2022-09-17T05:51:24;10.77;;;4.60;;
9898;SDS011;4988;49.238;6.698;2022-09-17T05:53:49;8.93;;;4.37;;
9898;SDS011;4988;49.238;6.698;2022-09-17T05:56:15;14.20;;;4.57;;
9898;SDS011;4988;49.238;6.698;2022-09-17T05:58:40;8.93;;;4.20;;
9898;SDS011;4988;49.238;6.698;2022-09-17T06:01:05;9.77;;;4.53;;
9898;SDS011;4988;49.238;6.698;2022-09-17T06:03:31;9.97;;;4.40;;
9898;SDS011;4988;49.238;6.698;2022-09-17T06:05:57;7.63;;;4.50;;
9898;SDS011;4988;49.238;6.698;2022-09-17T06:08:24;10.37;;;4.40;;
9898;SDS011;4988;49.238;6.698;2022-09-17T06:10:51;12.43;;;4.30;;
9898;SDS011;4988;49.238;6.698;2022-09-17T06:13:17;11.83;;;4.57;;
9898;SDS011;4988;49.238;6.698;2022-09-17T06:15:48;8.97;;;4.20;;
9898;SDS011;4988;49.238;6.698;2022-09-17T06:18:17;9.40;;;4.13;;
9898;SDS011;4988;49.238;6.698;2022-09-17T06:20:50;8.73;;;4.50;;
9898;SDS011;4988;49.238;6.698;2022-09-17T06:23:20;11.37;;;4.20;;
9898;SDS011;4988;49.238;6.698;2022-09-17T06:25:52;11.20;;;4.23;;
9898;SDS011;4988;49.238;6.698;2022-09-17T06:28:19;10.83;;;4.90;;
9898;SDS011;4988;49.238;6.698;2022-09-17T06:30:45;14.67;;;5.07;;
9898;SDS011;4988;49.238;6.698;2022-09-17T06:33:10;11.47;;;4.77;;
9898;SDS011;4988;49.238;6.698;2022-09-17T06:35:36;7.60;;;4.43;;
9898;SDS011;4988;49.238;6.698;2022-09-17T06:38:03;9.20;;;4.47;;
9898;SDS011;4988;49.238;6.698;2022-09-17T06:40:28;10.13;;;4.37;;
9898;SDS011;4988;49.238;6.698;2022-09-17T06:42:57;11.90;;;5.17;;
9898;SDS011;4988;49.238;6.698;2022-09-17T06:45:23;11.77;;;4.50;;
9898;SDS011;4988;49.238;6.698;2022-09-17T06:47:49;9.73;;;4.30;;
9898;SDS011;4988;49.238;6.698;2022-09-17T06:50:15;11.30;;;4.63;;
9898;SDS011;4988;49.238;6.698;2022-09-17T06:52:51;10.17;;;4.63;;
9898;SDS011;4988;49.238;6.698;2022-09-17T06:55:17;10.23;;;4.30;;
9898;SDS011;4988;49.238;6.698;2022-09-17T06:57:43;10.60;;;4.30;;
9898;SDS011;4988;49.238;6.698;2022-09-17T07:00:09;12.83;;;4.20;;
9898;SDS011;4988;49.238;6.698;2022-09-17T07:02:36;9.83;;;4.27;;
9898;SDS011;4988;49.238;6.698;2022-09-17T07:05:01;16.63;;;4.43;;
9898;SDS011;4988;49.238;6.698;2022-09-17T07:07:27;14.13;;;4.37;;
9898;SDS011;4988;49.238;6.698;2022-09-17T07:09:54;11.43;;;4.63;;
9898;SDS011;4988;49.238;6.698;2022-09-17T07:12:19;14.53;;;4.60;;
9898;SDS011;4988;49.238;6.698;2022-09-17T07:14:45;8.20;;;4.30;;
9898;SDS011;4988;49.238;6.698;2022-09-17T07:17:11;9.83;;;4.10;;
9898;SDS011;4988;49.238;6.698;2022-09-17T07:19:38;13.90;;;4.17;;
9898;SDS011;4988;49.238;6.698;2022-09-17T07:22:03;8.77;;;4.20;;
9898;SDS011;4988;49.238;6.698;2022-09-17T07:24:28;7.40;;;4.23;;
9898;SDS011;4988;49.238;6.698;2022-09-17T07:26:54;10.43;;;4.20;;
9898;SDS011;4988;49.238;6.698;2022-09-17T07:29:19;10.03;;;4.33;;
9898;SDS011;4988;49.238;6.698;2022-09-17T07:31:47;8.33;;;4.20;;
9898;SDS011;4988;49.238;6.698;2022-09-17T07:34:12;11.57;;;3.63;;
9898;SDS011;4988;49.238;6.698;2022-09-17T07:36:38;11.30;;;3.23;;
9898;SDS011;4988;49.238;6.698;2022-09-17T07:39:03;10.73;;;3.90;;
9898;SDS011;4988;49.238;6.698;2022-09-17T07:41:28;6.50;;;3.10;;
9898;SDS011;4988;49.238;6.698;2022-09-17T07:43:54;8.80;;;3.13;;
9898;SDS011;4988;49.238;6.698;2022-09-17T07:46:25;13.83;;;4.00;;
9898;SDS011;4988;49.238;6.698;2022-09-17T07:48:50;12.70;;;3.67;;
9898;SDS011;4988;49.238;6.698;2022-09-17T07:51:19;6.67;;;2.97;;
9898;SDS011;4988;49.238;6.698;2022-09-17T07:53:49;8.90;;;3.63;;
9898;SDS011;4988;49.238;6.698;2022-09-17T07:56:15;7.53;;;3.10;;
9898;SDS011;4988;49.238;6.698;2022-09-17T07:58:40;8.10;;;3.73;;
9898;SDS011;4988;49.238;6.698;2022-09-17T08:01:06;4.73;;;2.90;;
9898;SDS011;4988;49.238;6.698;2022-09-17T08:03:34;9.47;;;2.90;;
9898;SDS011;4988;49.238;6.698;2022-09-17T08:06:06;6.27;;;2.90;;
9898;SDS011;4988;49.238;6.698;2022-09-17T08:08:36;5.50;;;2.60;;
9898;SDS011;4988;49.238;6.698;2022-09-17T08:11:04;5.07;;;2.67;;
9898;SDS011;4988;49.238;6.698;2022-09-17T08:13:31;7.03;;;2.70;;
9898;SDS011;4988;49.238;6.698;2022-09-17T08:16:01;7.10;;;2.90;;
9898;SDS011;4988;49.238;6.698;2022-09-17T08:18:28;6.73;;;3.07;;
9898;SDS011;4988;49.238;6.698;2022-09-17T08:20:57;5.23;;;2.70;;
9898;SDS011;4988;49.238;6.698;2022-09-17T08:23:24;3.00;;;2.60;;
9898;SDS011;4988;49.238;6.698;2022-09-17T08:25:54;5.37;;;2.90;;
9898;SDS011;4988;49.238;6.698;2022-09-17T08:28:20;6.37;;;3.10;;
9898;SDS011;4988;49.238;6.698;2022-09-17T08:30:46;5.40;;;2.73;;
9898;SDS011;4988;49.238;6.698;2022-09-17T08:33:13;4.90;;;2.50;;
9898;SDS011;4988;49.238;6.698;2022-09-17T08:35:39;5.93;;;2.93;;
9898;SDS011;4988;49.238;6.698;2022-09-17T08:38:04;5.67;;;3.17;;
9898;SDS011;4988;49.238;6.698;2022-09-17T08:40:31;5.97;;;2.87;;
9898;SDS011;4988;49.238;6.698;2022-09-17T08:43:01;5.00;;;2.50;;
9898;SDS011;4988;49.238;6.698;2022-09-17T08:45:26;5.43;;;2.83;;
9898;SDS011;4988;49.238;6.698;2022-09-17T08:48:02;5.37;;;2.80;;
9898;SDS011;4988;49.238;6.698;2022-09-17T08:50:34;5.90;;;2.90;;
9898;SDS011;4988;49.238;6.698;2022-09-17T08:53:18;7.40;;;2.67;;
9898;SDS011;4988;49.238;6.698;2022-09-17T08:55:57;8.83;;;2.70;;
9898;SDS011;4988;49.238;6.698;2022-09-17T09:06:59;7.93;;;2.90;;
9898;SDS011;4988;49.238;6.698;2022-09-17T09:09:31;6.87;;;3.20;;
9898;SDS011;4988;49.238;6.698;2022-09-17T09:12:06;8.07;;;3.63;;
9898;SDS011;4988;49.238;6.698;2022-09-17T09:14:48;8.40;;;2.90;;
9898;SDS011;4988;49.238;6.698;2022-09-17T09:17:19;5.27;;;2.57;;
9898;SDS011;4988;49.238;6.698;2022-09-17T09:19:46;9.13;;;3.37;;
9898;SDS011;4988;49.238;6.698;2022-09-17T09:33:26;5.93;;;2.60;;
9898;SDS011;4988;49.238;6.698;2022-09-17T09:35:55;7.23;;;2.90;;
9898;SDS011;4988;49.238;6.698;2022-09-17T09:41:09;7.83;;;3.30;;
9898;SDS011;4988;49.238;6.698;2022-09-17T09:43:47;8.43;;;3.20;;
9898;SDS011;4988;49.238;6.698;2022-09-17T09:49:06;5.30;;;2.73;;
9898;SDS011;4988;49.238;6.698;2022-09-17T09:57:09;10.83;;;2.77;;
9898;SDS011;4988;49.238;6.698;2022-09-17T09:59:41;5.90;;;3.07;;
9898;SDS011;4988;49.238;6.698;2022-09-17T10:02:08;9.83;;;3.07;;
9898;SDS011;4988;49.238;6.698;2022-09-17T10:04:34;10.10;;;3.03;;
9898;SDS011;4988;49.238;6.698;2022-09-17T10:07:06;8.97;;;2.90;;
9898;SDS011;4988;49.238;6.698;2022-09-17T10:09:35;6.50;;;3.00;;
9898;SDS011;4988;49.238;6.698;2022-09-17T10:14:40;7.00;;;2.67;;
9898;SDS011;4988;49.238;6.698;2022-09-17T10:17:20;6.50;;;2.83;;
9898;SDS011;4988;49.238;6.698;2022-09-17T10:22:31;7.20;;;2.80;;
9898;SDS011;4988;49.238;6.698;2022-09-17T10:24:59;7.77;;;2.93;;
9898;SDS011;4988;49.238;6.698;2022-09-17T10:27:26;10.37;;;2.97;;
9898;SDS011;4988;49.238;6.698;2022-09-17T10:30:14;9.27;;;2.90;;
9898;SDS011;4988;49.238;6.698;2022-09-17T10:32:40;7.10;;;2.77;;
9898;SDS011;4988;49.238;6.698;2022-09-17T10:37:45;9.33;;;2.57;;
9898;SDS011;4988;49.238;6.698;2022-09-17T10:42:47;7.27;;;3.10;;
9898;SDS011;4988;49.238;6.698;2022-09-17T10:45:24;10.47;;;3.13;;
9898;SDS011;4988;49.238;6.698;2022-09-17T10:47:51;9.43;;;3.00;;
9898;SDS011;4988;49.238;6.698;2022-09-17T10:50:18;4.90;;;2.53;;
9898;SDS011;4988;49.238;6.698;2022-09-17T10:52:56;6.37;;;2.40;;
9898;SDS011;4988;49.238;6.698;2022-09-17T10:58:20;6.83;;;2.27;;
9898;SDS011;4988;49.238;6.698;2022-09-17T11:01:07;7.10;;;2.60;;
9898;SDS011;4988;49.238;6.698;2022-09-17T11:31:24;9.07;;;2.77;;
9898;SDS011;4988;49.238;6.698;2022-09-17T11:34:10;9.43;;;2.70;;
9898;SDS011;4988;49.238;6.698;2022-09-17T11:39:19;7.20;;;3.33;;
9898;SDS011;4988;49.238;6.698;2022-09-17T11:41:50;5.57;;;2.20;;
9898;SDS011;4988;49.238;6.698;2022-09-17T11:44:23;5.57;;;2.47;;
9898;SDS011;4988;49.238;6.698;2022-09-17T11:47:02;9.67;;;2.57;;
9898;SDS011;4988;49.238;6.698;2022-09-17T11:52:20;9.47;;;2.80;;
9898;SDS011;4988;49.238;6.698;2022-09-17T11:54:54;6.53;;;2.80;;
9898;SDS011;4988;49.238;6.698;2022-09-17T11:57:55;9.27;;;2.43;;
9898;SDS011;4988;49.238;6.698;2022-09-17T12:00:23;9.73;;;2.57;;
9898;SDS011;4988;49.238;6.698;2022-09-17T12:07:58;5.43;;;2.30;;
9898;SDS011;4988;49.238;6.698;2022-09-17T12:10:37;8.27;;;2.40;;
9898;SDS011;4988;49.238;6.698;2022-09-17T12:13:39;5.07;;;2.07;;
9898;SDS011;4988;49.238;6.698;2022-09-17T12:22:08;6.50;;;2.00;;
9898;SDS011;4988;49.238;6.698;2022-09-17T12:24:39;3.30;;;1.83;;
9898;SDS011;4988;49.238;6.698;2022-09-17T12:27:14;7.43;;;1.80;;
9898;SDS011;4988;49.238;6.698;2022-09-17T12:50:25;2.53;;;1.60;;
9898;SDS011;4988;49.238;6.698;2022-09-17T12:59:00;3.23;;;1.40;;
9898;SDS011;4988;49.238;6.698;2022-09-17T13:07:45;3.47;;;1.47;;
9898;SDS011;4988;49.238;6.698;2022-09-17T13:21:41;5.27;;;1.40;;
9898;SDS011;4988;49.238;6.698;2022-09-17T13:24:17;5.13;;;1.33;;
9898;SDS011;4988;49.238;6.698;2022-09-17T13:26:45;5.07;;;1.17;;
9898;SDS011;4988;49.238;6.698;2022-09-17T13:29:11;5.47;;;1.60;;
9898;SDS011;4988;49.238;6.698;2022-09-17T13:31:57;5.03;;;1.60;;
9898;SDS011;4988;49.238;6.698;2022-09-17T13:34:25;2.90;;;1.50;;
9898;SDS011;4988;49.238;6.698;2022-09-17T13:36:54;4.27;;;1.40;;
9898;SDS011;4988;49.238;6.698;2022-09-17T13:42:14;1.40;;;1.30;;
9898;SDS011;4988;49.238;6.698;2022-09-17T13:45:03;2.73;;;1.20;;
9898;SDS011;4988;49.238;6.698;2022-09-17T13:47:49;2.20;;;1.40;;
9898;SDS011;4988;49.238;6.698;2022-09-17T13:50:29;2.70;;;1.20;;
9898;SDS011;4988;49.238;6.698;2022-09-17T13:52:59;3.20;;;1.30;;
9898;SDS011;4988;49.238;6.698;2022-09-17T13:58:23;3.43;;;1.37;;
9898;SDS011;4988;49.238;6.698;2022-09-17T14:13:56;4.63;;;1.20;;
9898;SDS011;4988;49.238;6.698;2022-09-17T14:21:41;2.80;;;1.30;;
9898;SDS011;4988;49.238;6.698;2022-09-17T14:32:45;3.97;;;1.67;;
9898;SDS011;4988;49.238;6.698;2022-09-17T14:35:34;1.93;;;1.60;;
9898;SDS011;4988;49.238;6.698;2022-09-17T14:38:11;2.73;;;1.50;;
9898;SDS011;4988;49.238;6.698;2022-09-17T14:41:33;2.33;;;1.10;;
9898;SDS011;4988;49.238;6.698;2022-09-17T14:43:47;2.33;;;1.43;;
9898;SDS011;4988;49.238;6.698;2022-09-17T14:46:35;2.47;;;1.37;;
9898;SDS011;4988;49.238;6.698;2022-09-17T14:51:51;2.07;;;1.50;;
9898;SDS011;4988;49.238;6.698;2022-09-17T14:54:39;2.93;;;1.30;;
9898;SDS011;4988;49.238;6.698;2022-09-17T15:02:26;2.13;;;1.50;;
9898;SDS011;4988;49.238;6.698;2022-09-17T15:04:52;1.87;;;1.23;;
9898;SDS011;4988;49.238;6.698;2022-09-17T15:07:18;2.57;;;1.20;;
9898;SDS011;4988;49.238;6.698;2022-09-17T15:09:45;3.73;;;1.50;;
9898;SDS011;4988;49.238;6.698;2022-09-17T15:12:10;1.50;;;1.33;;
9898;SDS011;4988;49.238;6.698;2022-09-17T15:14:42;5.40;;;1.17;;
9898;SDS011;4988;49.238;6.698;2022-09-17T15:17:13;2.80;;;1.30;;
9898;SDS011;4988;49.238;6.698;2022-09-17T15:19:40;1.70;;;1.40;;
9898;SDS011;4988;49.238;6.698;2022-09-17T15:22:22;2.73;;;1.20;;
9898;SDS011;4988;49.238;6.698;2022-09-17T15:27:28;2.03;;;1.40;;
9898;SDS011;4988;49.238;6.698;2022-09-17T15:30:19;1.40;;;1.20;;
9898;SDS011;4988;49.238;6.698;2022-09-17T15:33:08;1.33;;;1.23;;
9898;SDS011;4988;49.238;6.698;2022-09-17T15:35:33;2.97;;;1.60;;
9898;SDS011;4988;49.238;6.698;2022-09-17T15:38:00;2.63;;;1.37;;
9898;SDS011;4988;49.238;6.698;2022-09-17T15:40:33;2.47;;;1.40;;
9898;SDS011;4988;49.238;6.698;2022-09-17T15:45:41;1.73;;;1.60;;
9898;SDS011;4988;49.238;6.698;2022-09-17T15:50:58;3.03;;;1.50;;
9898;SDS011;4988;49.238;6.698;2022-09-17T15:53:26;2.17;;;1.60;;
9898;SDS011;4988;49.238;6.698;2022-09-17T16:11:16;4.27;;;1.80;;
9898;SDS011;4988;49.238;6.698;2022-09-17T16:13:50;2.70;;;1.63;;
9898;SDS011;4988;49.238;6.698;2022-09-17T16:16:26;3.80;;;2.07;;
9898;SDS011;4988;49.238;6.698;2022-09-17T16:18:58;2.00;;;1.80;;
9898;SDS011;4988;49.238;6.698;2022-09-17T16:21:24;2.53;;;1.80;;
9898;SDS011;4988;49.238;6.698;2022-09-17T16:23:49;4.43;;;2.00;;
9898;SDS011;4988;49.238;6.698;2022-09-17T16:26:18;4.40;;;1.70;;
9898;SDS011;4988;49.238;6.698;2022-09-17T16:28:55;2.60;;;1.70;;
9898;SDS011;4988;49.238;6.698;2022-09-17T16:31:28;2.37;;;1.70;;
9898;SDS011;4988;49.238;6.698;2022-09-17T16:33:54;1.93;;;1.50;;
9898;SDS011;4988;49.238;6.698;2022-09-17T16:36:19;5.13;;;1.60;;
9898;SDS011;4988;49.238;6.698;2022-09-17T16:38:45;3.27;;;1.60;;
9898;SDS011;4988;49.238;6.698;2022-09-17T16:41:11;4.07;;;1.90;;
9898;SDS011;4988;49.238;6.698;2022-09-17T16:43:36;3.83;;;1.87;;
9898;SDS011;4988;49.238;6.698;2022-09-17T16:46:04;5.70;;;2.27;;
9898;SDS011;4988;49.238;6.698;2022-09-17T16:48:32;1.80;;;1.60;;
9898;SDS011;4988;49.238;6.698;2022-09-17T16:50:58;4.87;;;1.80;;
9898;SDS011;4988;49.238;6.698;2022-09-17T16:53:25;3.83;;;1.93;;
9898;SDS011;4988;49.238;6.698;2022-09-17T16:55:51;3.63;;;1.97;;
9898;SDS011;4988;49.238;6.698;2022-09-17T16:58:16;5.23;;;2.53;;
9898;SDS011;4988;49.238;6.698;2022-09-17T17:00:42;5.83;;;1.97;;
9898;SDS011;4988;49.238;6.698;2022-09-17T17:03:08;3.17;;;1.80;;
9898;SDS011;4988;49.238;6.698;2022-09-17T17:05:36;3.00;;;1.77;;
9898;SDS011;4988;49.238;6.698;2022-09-17T17:08:02;3.40;;;2.17;;
9898;SDS011;4988;49.238;6.698;2022-09-17T17:10:27;4.00;;;2.00;;
9898;SDS011;4988;49.238;6.698;2022-09-17T17:12:52;7.93;;;2.10;;
9898;SDS011;4988;49.238;6.698;2022-09-17T17:15:18;6.03;;;2.10;;
9898;SDS011;4988;49.238;6.698;2022-09-17T17:17:44;3.97;;;1.93;;
9898;SDS011;4988;49.238;6.698;2022-09-17T17:20:10;3.63;;;1.80;;
9898;SDS011;4988;49.238;6.698;2022-09-17T17:22:41;7.80;;;1.80;;
9898;SDS011;4988;49.238;6.698;2022-09-17T17:25:10;3.93;;;1.80;;
9898;SDS011;4988;49.238;6.698;2022-09-17T17:27:37;3.97;;;1.77;;
9898;SDS011;4988;49.238;6.698;2022-09-17T17:30:03;9.90;;;4.43;;
9898;SDS011;4988;49.238;6.698;2022-09-17T17:32:31;9.60;;;4.40;;
9898;SDS011;4988;49.238;6.698;2022-09-17T17:34:57;7.10;;;2.10;;
9898;SDS011;4988;49.238;6.698;2022-09-17T17:37:23;3.00;;;1.80;;
9898;SDS011;4988;49.238;6.698;2022-09-17T17:39:48;9.17;;;3.80;;
9898;SDS011;4988;49.238;6.698;2022-09-17T17:42:14;10.97;;;5.10;;
9898;SDS011;4988;49.238;6.698;2022-09-17T17:44:39;6.43;;;1.90;;
9898;SDS011;4988;49.238;6.698;2022-09-17T17:47:05;4.47;;;2.20;;
9898;SDS011;4988;49.238;6.698;2022-09-17T17:49:32;7.43;;;2.20;;
9898;SDS011;4988;49.238;6.698;2022-09-17T17:51:57;5.23;;;2.30;;
9898;SDS011;4988;49.238;6.698;2022-09-17T17:54:23;5.63;;;2.10;;
9898;SDS011;4988;49.238;6.698;2022-09-17T17:56:51;5.60;;;1.97;;
9898;SDS011;4988;49.238;6.698;2022-09-17T17:59:16;5.57;;;1.80;;
9898;SDS011;4988;49.238;6.698;2022-09-17T18:01:42;6.57;;;2.17;;
9898;SDS011;4988;49.238;6.698;2022-09-17T18:04:07;8.77;;;2.57;;
9898;SDS011;4988;49.238;6.698;2022-09-17T18:06:33;5.43;;;2.07;;
9898;SDS011;4988;49.238;6.698;2022-09-17T18:08:59;4.70;;;1.90;;
9898;SDS011;4988;49.238;6.698;2022-09-17T18:11:24;9.47;;;2.37;;
9898;SDS011;4988;49.238;6.698;2022-09-17T18:13:51;5.73;;;1.73;;
9898;SDS011;4988;49.238;6.698;2022-09-17T18:16:18;5.63;;;1.90;;
9898;SDS011;4988;49.238;6.698;2022-09-17T18:18:44;4.60;;;1.73;;
9898;SDS011;4988;49.238;6.698;2022-09-17T18:21:11;5.97;;;1.93;;
9898;SDS011;4988;49.238;6.698;2022-09-17T18:23:40;5.80;;;2.00;;
9898;SDS011;4988;49.238;6.698;2022-09-17T18:26:07;4.77;;;2.07;;
9898;SDS011;4988;49.238;6.698;2022-09-17T18:28:36;9.27;;;2.20;;
9898;SDS011;4988;49.238;6.698;2022-09-17T18:31:05;9.90;;;2.20;;
9898;SDS011;4988;49.238;6.698;2022-09-17T18:33:39;4.60;;;2.20;;
9898;SDS011;4988;49.238;6.698;2022-09-17T18:36:05;6.00;;;2.23;;
9898;SDS011;4988;49.238;6.698;2022-09-17T18:38:30;7.43;;;2.23;;
9898;SDS011;4988;49.238;6.698;2022-09-17T18:41:06;7.63;;;2.23;;
9898;SDS011;4988;49.238;6.698;2022-09-17T18:43:34;5.17;;;1.87;;
9898;SDS011;4988;49.238;6.698;2022-09-17T18:46:00;8.97;;;2.27;;
9898;SDS011;4988;49.238;6.698;2022-09-17T18:48:26;7.07;;;2.00;;
9898;SDS011;4988;49.238;6.698;2022-09-17T18:50:58;3.30;;;1.77;;
9898;SDS011;4988;49.238;6.698;2022-09-17T18:53:26;6.60;;;2.13;;
9898;SDS011;4988;49.238;6.698;2022-09-17T18:55:52;4.60;;;2.20;;
9898;SDS011;4988;49.238;6.698;2022-09-17T18:58:20;4.90;;;2.10;;
9898;SDS011;4988;49.238;6.698;2022-09-17T19:00:45;7.00;;;2.20;;
9898;SDS011;4988;49.238;6.698;2022-09-17T19:03:10;5.57;;;2.10;;
9898;SDS011;4988;49.238;6.698;2022-09-17T19:05:36;6.20;;;2.13;;
9898;SDS011;4988;49.238;6.698;2022-09-17T19:08:01;7.20;;;2.20;;
9898;SDS011;4988;49.238;6.698;2022-09-17T19:10:27;6.57;;;2.00;;
9898;SDS011;4988;49.238;6.698;2022-09-17T19:12:54;5.37;;;2.40;;
9898;SDS011;4988;49.238;6.698;2022-09-17T19:15:19;5.40;;;2.10;;
9898;SDS011;4988;49.238;6.698;2022-09-17T19:17:47;10.43;;;2.40;;
9898;SDS011;4988;49.238;6.698;2022-09-17T19:20:13;4.80;;;1.93;;
9898;SDS011;4988;49.238;6.698;2022-09-17T19:22:38;7.63;;;2.10;;
9898;SDS011;4988;49.238;6.698;2022-09-17T19:25:04;4.53;;;2.27;;
9898;SDS011;4988;49.238;6.698;2022-09-17T19:27:30;4.23;;;2.00;;
9898;SDS011;4988;49.238;6.698;2022-09-17T19:29:55;5.00;;;2.13;;
9898;SDS011;4988;49.238;6.698;2022-09-17T19:32:21;6.37;;;2.80;;
9898;SDS011;4988;49.238;6.698;2022-09-17T19:34:47;4.50;;;1.90;;
9898;SDS011;4988;49.238;6.698;2022-09-17T19:37:12;5.37;;;2.03;;